Airfield :
LOGIN :

Register | Disclaimer

   EN    FR    IT 

 










Legend :    VFR   Marginal VFR   IFR   Intensive IFR   Very Intensive IFR
Visi :
Ceiling :
>= 8 km
>= 3000ft
5 to 8 km
1000 to 3000 ft
1500m to 5 km
500 to 1000 ft
800 to 1500m
200 to 500 ft
< 800m
< 200 ft
Symbols :   Thunderstorms  Fog  Heavy snow  Heavy precipitations  Wind > 20 kt
SIGMETs :     Misc.  Thunderstorms  Icing  Turbulence  Mountain Waves  Volcanic Ashes







- Airport Elevation : 126 ft
- IATA code : WIC
- Download approach charts


EGPC - Wick

CURRENT METAR :
  • 261120Z 27018KT 9999 FEW020 SCT031 10/06 Q1024

EXPIRED METARs :
  • 261050Z 26014KT 9999 FEW020 SCT031 10/06 Q1024
  • 261020Z 25013G23KT 9999 SCT036 09/05 Q1024
  • 260950Z 26015KT 9999 SCT035 09/05 Q1024
  • 260920Z 26012KT 9999 SCT034 09/05 Q1025
  • 260850Z 26012KT 9999 SCT038 09/04 Q1025

TAF TAF EGPC
Valid from the 26 at 12:00 until the 26 at 21:00 UTC


261056Z 2612/2621 24009KT 9999 FEW018 SCT030
TEMPO 2612/2621 25018G28KT
PROB40
TEMPO 2612/2621 8000 -RA BKN014
ATIS : +44 1955 607 596
No reported NOTAMs for that airfield.



MET'MAP, your aeronautical weather chart ! - Copyright ORBIFLY December 2007 - Disclaimer

ORBIFLY MET'MAP TEAM :

Programming & Development : Alexandra Zaïnal
Concept & Development : Baudouin d'Aumeries
Co-Development & Prog : Marc-Olivier Méhu
Technical & hardware support : Manuel Goepfert

Contact : metmap@orbifly.com




SOURCES & CREDITS :

   NOAA